Time;durP1;ratioP1;P1;durP2;ratioP2;P2;SDS_P1;SDS_P2;PMS_P1;PMS_P2;Temp;Humidity;BMP_temperature;BMP_pressure;BME280_temperature;BME280_humidity;BME280_pressure;Samples;Min_cycle;Max_cycle;Signal;HPM_P1;HPM_P2
2022/07/01 00:01:19;;;;;;;15.33;13.83;;;;;;;19.47;94.01;101071.63;5069913;28;20524;-43
2022/07/01 00:03:49;;;;;;;18.67;13.93;;;;;;;19.45;93.30;101066.44;5071295;28;20432;-45
2022/07/01 00:06:17;;;;;;;14.70;13.40;;;;;;;19.47;92.87;101066.22;5071107;28;20438;-45
2022/07/01 00:08:45;;;;;;;15.80;14.10;;;;;;;19.45;92.14;101062.91;5071164;28;20911;-44
2022/07/01 00:11:13;;;;;;;15.97;14.37;;;;;;;19.45;91.84;101066.44;5070005;28;20523;-42
2022/07/01 00:13:41;;;;;;;16.70;15.00;;;;;;;19.47;92.15;101079.72;5071233;28;20465;-47
2022/07/01 00:16:10;;;;;;;16.43;14.83;;;;;;;19.49;92.51;101080.28;5071040;28;20438;-45
2022/07/01 00:18:38;;;;;;;17.47;15.40;;;;;;;19.49;92.46;101074.88;5071782;28;20474;-44
2022/07/01 00:21:06;;;;;;;17.57;15.90;;;;;;;19.50;92.24;101076.53;5073328;28;20485;-44
2022/07/01 00:23:40;;;;;;;17.43;15.80;;;;;;;19.51;92.33;101086.28;5074315;28;20433;-46
2022/07/01 00:26:08;;;;;;;15.90;14.50;;;;;;;19.55;92.36;101073.91;5074696;28;20528;-46
2022/07/01 00:28:36;;;;;;;16.93;15.20;;;;;;;19.52;91.73;101072.50;5074557;28;20462;-48
2022/07/01 00:31:04;;;;;;;18.20;14.97;;;;;;;19.59;92.05;101075.06;5073405;28;20828;-46
2022/07/01 00:33:32;;;;;;;16.33;14.60;;;;;;;19.61;92.78;101068.31;5053136;28;20495;-43
2022/07/01 00:36:00;;;;;;;15.83;14.40;;;;;;;19.67;93.29;101078.16;5061679;28;20430;-45
2022/07/01 00:38:28;;;;;;;16.07;14.57;;;;;;;19.73;93.60;101104.22;5074317;28;20560;-44
2022/07/01 00:40:56;;;;;;;12.23;11.23;;;;;;;19.81;94.37;101146.28;5073575;28;20541;-47
2022/07/01 00:43:25;;;;;;;16.90;15.20;;;;;;;19.84;95.91;101148.47;5074370;28;20457;-47
2022/07/01 00:46:12;;;;;;;15.63;14.20;;;;;;;19.86;97.25;101162.59;5074465;28;20430;-42
2022/07/01 00:48:43;;;;;;;18.70;15.10;;;;;;;19.81;98.80;101182.28;5074297;28;20430;-42
2022/07/01 00:51:11;;;;;;;14.50;13.30;;;;;;;19.85;99.35;101166.38;5073480;28;20488;-44
2022/07/01 00:53:39;;;;;;;16.47;14.87;;;;;;;19.87;100.00;101142.56;5074186;28;20430;-48
2022/07/01 00:56:06;;;;;;;15.47;14.07;;;;;;;19.91;100.00;101153.72;5073981;28;20437;-48
2022/07/01 00:58:34;;;;;;;16.40;15.03;;;;;;;19.92;100.00;101131.84;5074181;28;21119;-45
2022/07/01 01:01:02;;;;;;;14.30;13.17;;;;;;;19.95;100.00;101125.91;5073055;28;20488;-45
2022/07/01 01:03:31;;;;;;;15.80;14.40;;;;;;;19.95;100.00;101104.25;5074067;28;20848;-46
2022/07/01 01:06:00;;;;;;;15.00;12.47;;;;;;;19.97;100.00;101096.72;5073861;28;20461;-45
2022/07/01 01:08:27;;;;;;;15.20;14.00;;;;;;;19.99;100.00;101102.69;5073841;28;20437;-47
2022/07/01 01:10:56;;;;;;;14.83;13.67;;;;;;;20.00;100.00;101092.69;5072979;28;20453;-46
2022/07/01 01:13:24;;;;;;;14.90;13.67;;;;;;;20.01;100.00;101095.13;5073926;28;20781;-47
2022/07/01 01:15:52;;;;;;;13.50;12.30;;;;;;;20.04;100.00;101119.00;5073839;28;20440;-45
2022/07/01 01:18:19;;;;;;;13.40;12.30;;;;;;;20.08;100.00;101105.78;5073697;28;20474;-48
2022/07/01 01:20:48;;;;;;;15.13;13.73;;;;;;;20.07;100.00;101104.97;5072864;28;20483;-45
2022/07/01 01:23:16;;;;;;;14.93;13.63;;;;;;;20.10;100.00;101100.97;5073495;28;20525;-45
2022/07/01 01:25:44;;;;;;;16.47;15.17;;;;;;;20.08;100.00;101076.81;5073677;28;20438;-44
2022/07/01 01:28:11;;;;;;;16.70;15.37;;;;;;;20.02;100.00;101064.28;5073602;28;20433;-44
2022/07/01 01:30:39;;;;;;;15.20;13.90;;;;;;;20.03;100.00;101062.41;5072698;28;20474;-47
2022/07/01 01:33:07;;;;;;;16.77;14.97;;;;;;;20.03;100.00;101065.94;5065894;28;20426;-43
2022/07/01 01:35:35;;;;;;;15.97;14.50;;;;;;;20.04;100.00;101077.59;5057393;28;20434;-47
2022/07/01 01:38:04;;;;;;;14.87;13.47;;;;;;;20.02;100.00;101067.00;5073140;28;20467;-49
2022/07/01 01:40:32;;;;;;;17.27;15.80;;;;;;;20.01;100.00;101072.69;5072728;28;20470;-49
2022/07/01 01:42:59;;;;;;;16.80;15.20;;;;;;;19.99;100.00;101070.19;5073405;28;20441;-45
2022/07/01 01:45:28;;;;;;;16.03;14.80;;;;;;;19.98;100.00;101071.25;5073221;28;20537;-45
2022/07/01 01:47:55;;;;;;;17.57;16.00;;;;;;;19.97;100.00;101064.22;5073082;28;20430;-44
2022/07/01 01:50:23;;;;;;;19.00;17.00;;;;;;;19.96;100.00;101059.06;5072103;28;20457;-45
2022/07/01 01:52:51;;;;;;;16.00;14.40;;;;;;;19.95;100.00;101050.09;5073200;28;20433;-44
2022/07/01 01:55:20;;;;;;;17.23;15.63;;;;;;;19.94;100.00;101045.78;5073113;28;20867;-44
2022/07/01 01:57:47;;;;;;;18.63;17.17;;;;;;;19.92;100.00;101045.22;5072976;28;20434;-45
2022/07/01 02:00:16;;;;;;;18.63;17.03;;;;;;;19.90;100.00;101041.94;5072094;28;20458;-46
2022/07/01 02:02:43;;;;;;;17.93;16.23;;;;;;;19.85;100.00;101031.88;5072771;28;20437;-46
2022/07/01 02:05:13;;;;;;;18.97;17.33;;;;;;;19.78;100.00;101012.28;5072731;28;20541;-47
2022/07/01 02:07:41;;;;;;;19.80;17.00;;;;;;;19.72;99.85;100988.94;5072885;28;20429;-47
2022/07/01 02:10:09;;;;;;;19.63;17.90;;;;;;;19.66;97.72;100971.00;5072326;28;20465;-47
2022/07/01 02:12:38;;;;;;;20.40;18.60;;;;;;;19.66;96.87;100973.69;5072528;28;20457;-45
2022/07/01 02:15:07;;;;;;;20.77;18.77;;;;;;;19.65;96.96;100999.09;5072502;28;20452;-48
2022/07/01 02:17:35;;;;;;;20.20;18.40;;;;;;;19.65;97.17;101009.13;5072291;28;20958;-45
2022/07/01 02:20:04;;;;;;;19.73;17.60;;;;;;;19.64;97.29;101005.59;5072052;28;20461;-46
2022/07/01 02:22:31;;;;;;;18.93;17.13;;;;;;;19.63;97.59;100995.84;5072073;28;20450;-44
2022/07/01 02:24:59;;;;;;;19.97;18.20;;;;;;;19.64;97.58;100992.06;5072449;28;20928;-45
2022/07/01 02:27:27;;;;;;;19.03;17.53;;;;;;;19.66;97.88;101002.63;5072355;28;20436;-46
2022/07/01 02:29:56;;;;;;;19.40;17.70;;;;;;;19.64;98.61;100996.66;5071664;28;20462;-45
2022/07/01 02:32:24;;;;;;;20.80;18.63;;;;;;;19.57;97.87;101012.25;5064759;28;20447;-47
2022/07/01 02:34:52;;;;;;;21.27;19.50;;;;;;;19.56;97.24;101018.75;5064031;28;20422;-45
2022/07/01 02:37:19;;;;;;;21.73;19.70;;;;;;;19.53;96.91;101020.06;5072291;28;20429;-47
2022/07/01 02:39:47;;;;;;;22.13;20.10;;;;;;;19.54;96.38;101024.38;5071651;28;20465;-45
2022/07/01 02:42:27;;;;;;;21.43;19.43;;;;;;;19.52;96.72;101037.34;5071408;28;20450;-46
2022/07/01 02:44:56;;;;;;;22.63;20.33;;;;;;;19.55;95.92;101054.97;5072010;28;20942;-46
2022/07/01 02:47:24;;;;;;;20.67;18.67;;;;;;;19.53;96.50;101059.81;5072180;28;20784;-46
2022/07/01 02:49:56;;;;;;;22.13;20.10;;;;;;;19.55;96.08;101076.59;5071661;28;20469;-45
2022/07/01 02:52:24;;;;;;;23.07;20.83;;;;;;;19.56;96.50;101064.72;5071854;28;20450;-46
2022/07/01 02:54:51;;;;;;;23.33;21.13;;;;;;;19.56;96.70;101062.81;5071980;28;20440;-48
2022/07/01 02:57:19;;;;;;;21.03;19.13;;;;;;;19.57;97.43;101066.34;5071842;28;20433;-48
2022/07/01 02:59:46;;;;;;;22.03;20.07;;;;;;;19.58;97.48;101068.00;5071271;28;20458;-50
2022/07/01 03:02:15;;;;;;;23.57;21.27;;;;;;;19.59;97.71;101062.31;5071418;28;20464;-49
2022/07/01 03:04:43;;;;;;;22.53;20.30;;;;;;;19.59;98.37;101064.22;5071906;28;20867;-46
2022/07/01 03:07:11;;;;;;;22.70;20.53;;;;;;;19.57;98.92;101059.06;5071768;28;20483;-48
2022/07/01 03:09:39;;;;;;;25.30;22.60;;;;;;;19.55;99.45;101066.59;5071158;28;20931;-49
2022/07/01 03:14:51;;;;;;;18.00;16.40;;;;;;;19.56;99.47;101072.84;5071462;28;20444;-47
2022/07/01 03:17:20;;;;;;;18.63;17.03;;;;;;;19.57;99.76;101071.75;5071742;28;20426;-47
2022/07/01 03:19:48;;;;;;;19.67;18.03;;;;;;;19.55;100.00;101065.78;5071137;28;20469;-45
2022/07/01 03:22:16;;;;;;;24.13;21.73;;;;;;;19.52;100.00;101063.56;5071324;28;20450;-47
2022/07/01 03:24:44;;;;;;;24.60;22.07;;;;;;;19.51;100.00;101065.44;5071756;28;20440;-44
2022/07/01 03:27:11;;;;;;;22.73;20.53;;;;;;;19.51;99.99;101076.28;5071844;28;20429;-47
2022/07/01 03:29:39;;;;;;;21.17;19.37;;;;;;;19.50;100.00;101081.94;5071175;28;20422;-45
2022/07/01 03:32:08;;;;;;;22.57;20.43;;;;;;;19.51;100.00;101088.97;5064070;28;20807;-45
2022/07/01 03:34:38;;;;;;;20.07;18.13;;;;;;;19.54;99.80;101078.50;5051726;28;20427;-48
2022/07/01 03:37:09;;;;;;;24.03;21.87;;;;;;;19.58;99.91;101090.47;5051682;28;20488;-45
2022/07/01 03:39:38;;;;;;;20.10;18.10;;;;;;;19.61;99.66;101095.38;5050987;28;20976;-46
2022/07/01 03:42:07;;;;;;;20.20;18.43;;;;;;;19.68;99.44;101090.59;5051319;28;20462;-44
2022/07/01 03:44:36;;;;;;;19.77;18.10;;;;;;;19.71;99.60;101084.69;5051411;28;20438;-46
2022/07/01 03:47:06;;;;;;;18.30;16.60;;;;;;;19.78;99.15;101098.06;5051222;28;21006;-44
2022/07/01 03:49:34;;;;;;;18.47;16.93;;;;;;;19.85;99.05;101096.00;5050990;28;20842;-47
2022/07/01 03:52:04;;;;;;;21.93;19.63;;;;;;;19.88;99.21;101099.03;5050951;28;20455;-44
2022/07/01 03:54:32;;;;;;;26.73;23.93;;;;;;;19.93;99.24;101092.84;5053637;28;20928;-46
2022/07/01 03:57:01;;;;;;;21.80;19.97;;;;;;;19.96;99.43;101096.94;5055202;28;20431;-44
2022/07/01 03:59:31;;;;;;;20.00;18.27;;;;;;;20.00;99.17;101088.09;5054407;28;20437;-45
2022/07/01 04:02:00;;;;;;;20.40;18.27;;;;;;;20.06;98.79;101088.97;5054519;28;20464;-44
2022/07/01 04:04:28;;;;;;;20.03;18.13;;;;;;;20.16;98.64;101097.25;5055226;28;20761;-46
2022/07/01 04:06:58;;;;;;;22.07;19.97;;;;;;;20.17;99.25;101101.56;5054893;28;20948;-44
2022/07/01 04:09:29;;;;;;;20.37;18.57;;;;;;;20.19;99.21;101102.94;5054545;28;20437;-46
2022/07/01 04:11:57;;;;;;;21.37;19.40;;;;;;;20.20;99.29;101107.31;5054609;28;20453;-45
2022/07/01 04:14:25;;;;;;;22.33;20.20;;;;;;;20.21;99.06;101111.66;5054727;28;20455;-45
2022/07/01 04:16:53;;;;;;;18.10;16.40;;;;;;;20.25;99.02;101112.81;5054626;28;21030;-44
2022/07/01 04:19:21;;;;;;;14.83;13.60;;;;;;;20.28;99.07;101117.72;5054772;28;20522;-45
2022/07/01 04:24:43;;;;;;;13.17;11.97;;;;;;;20.34;100.00;101124.84;5030074;28;20430;-49
2022/07/01 04:27:11;;;;;;;13.83;12.50;;;;;;;20.36;100.00;101128.16;5054523;28;20808;-48
2022/07/01 04:29:39;;;;;;;11.90;10.70;;;;;;;20.36;100.00;101141.69;5054145;28;20442;-46
2022/07/01 04:32:08;;;;;;;12.57;11.57;;;;;;;20.38;100.00;101136.84;5047044;28;20447;-45
2022/07/01 04:34:35;;;;;;;12.33;11.33;;;;;;;20.32;100.00;101145.13;5062622;28;20423;-45
2022/07/01 04:37:04;;;;;;;11.63;10.63;;;;;;;20.24;100.00;101140.97;5054326;28;20431;-47
2022/07/01 04:39:32;;;;;;;10.23;9.40;;;;;;;20.21;100.00;101143.34;5053762;28;20927;-46
2022/07/01 04:42:00;;;;;;;11.13;10.33;;;;;;;20.17;100.00;101145.72;5054255;28;20459;-48
2022/07/01 04:44:28;;;;;;;10.70;9.73;;;;;;;20.14;100.00;101139.97;5054369;28;20426;-46
2022/07/01 04:46:56;;;;;;;11.70;10.60;;;;;;;20.02;100.00;101147.38;5054288;28;20517;-44
2022/07/01 04:49:24;;;;;;;14.27;10.73;;;;;;;19.88;100.00;101146.94;5054237;28;20430;-46
2022/07/01 04:51:52;;;;;;;19.93;11.37;;;;;;;19.75;100.00;101145.38;5053352;28;20987;-46
2022/07/01 04:54:20;;;;;;;16.83;9.73;;;;;;;19.63;100.00;101146.53;5053995;28;20434;-46
2022/07/01 04:56:47;;;;;;;22.57;10.30;;;;;;;19.58;100.00;101152.69;5054122;28;20441;-44
2022/07/01 04:59:16;;;;;;;18.00;11.07;;;;;;;19.49;100.00;101150.63;5054031;28;20438;-46
2022/07/01 05:01:45;;;;;;;17.40;10.50;;;;;;;19.34;100.00;101159.28;5052949;28;20501;-43
2022/07/01 05:04:13;;;;;;;18.43;8.83;;;;;;;19.25;100.00;101164.25;5053394;28;20423;-47
2022/07/01 05:06:41;;;;;;;15.80;8.93;;;;;;;19.18;100.00;101169.00;5053866;28;20542;-45
2022/07/01 05:09:08;;;;;;;14.67;7.87;;;;;;;19.15;100.00;101171.34;5053776;28;20932;-48
2022/07/01 05:11:36;;;;;;;21.43;9.23;;;;;;;19.08;100.00;101178.81;5052922;28;20459;-46
2022/07/01 05:14:04;;;;;;;20.07;9.07;;;;;;;19.05;100.00;101182.00;5053746;28;20859;-44
2022/07/01 05:16:33;;;;;;;16.43;8.33;;;;;;;19.05;100.00;101184.69;5053626;28;20441;-46
2022/07/01 05:22:01;;;;;;;16.53;8.23;;;;;;;18.93;100.00;101198.25;5052743;28;20486;-45
2022/07/01 05:24:31;;;;;;;11.77;7.73;;;;;;;18.98;100.00;101203.75;5053683;28;20463;-44
2022/07/01 05:27:01;;;;;;;21.83;8.30;;;;;;;19.05;100.00;101209.03;5053522;28;20488;-46
2022/07/01 05:29:29;;;;;;;16.07;7.33;;;;;;;19.13;100.00;101211.34;5052859;28;20424;-45
2022/07/01 05:31:58;;;;;;;18.90;8.97;;;;;;;19.17;100.00;101221.44;5047383;28;20476;-46
2022/07/01 05:34:26;;;;;;;22.97;8.77;;;;;;;19.20;100.00;101214.72;5062805;28;20793;-49
2022/07/01 05:36:53;;;;;;;23.03;9.13;;;;;;;19.25;100.00;101215.63;5073274;28;20528;-46
2022/07/01 05:39:21;;;;;;;15.50;7.77;;;;;;;19.21;100.00;101225.28;5073290;28;20430;-44
2022/07/01 05:41:49;;;;;;;17.07;8.57;;;;;;;19.18;100.00;101231.16;5072175;28;20564;-46
2022/07/01 05:44:16;;;;;;;15.07;9.23;;;;;;;19.19;100.00;101235.53;5073271;28;20430;-44
2022/07/01 05:46:44;;;;;;;16.00;8.57;;;;;;;19.17;100.00;101239.53;5073231;28;20434;-48
2022/07/01 05:49:13;;;;;;;17.87;8.70;;;;;;;19.04;100.00;101248.75;5073000;28;20433;-46
2022/07/01 05:51:45;;;;;;;14.00;7.50;;;;;;;18.93;100.00;101252.31;5072188;28;20474;-46
2022/07/01 05:54:13;;;;;;;26.67;8.03;;;;;;;18.85;100.00;101258.06;5072833;28;20430;-47
2022/07/01 05:56:41;;;;;;;14.13;8.07;;;;;;;18.85;100.00;101257.25;5072804;28;20935;-45
2022/07/01 05:59:09;;;;;;;16.80;7.50;;;;;;;18.86;100.00;101248.91;5072994;28;20437;-47
2022/07/01 06:01:36;;;;;;;13.47;8.23;;;;;;;18.84;100.00;101258.31;5071674;28;20482;-45
2022/07/01 06:04:04;;;;;;;15.17;7.60;;;;;;;18.86;100.00;101256.19;5072841;28;20834;-44
2022/07/01 06:06:33;;;;;;;20.63;8.40;;;;;;;18.83;100.00;101265.59;5072753;28;20441;-45
2022/07/01 06:09:01;;;;;;;9.77;6.80;;;;;;;18.83;100.00;101252.09;5072487;28;20931;-44
2022/07/01 06:11:28;;;;;;;19.03;7.40;;;;;;;18.78;100.00;101262.81;5071820;28;20462;-45
2022/07/01 06:13:56;;;;;;;11.93;6.53;;;;;;;18.70;100.00;101268.53;5072614;28;20436;-44
2022/07/01 06:16:24;;;;;;;21.13;7.60;;;;;;;18.63;100.00;101276.81;5071762;28;20438;-47
2022/07/01 06:18:57;;;;;;;9.63;6.50;;;;;;;18.56;100.00;101278.78;5072379;28;20780;-48
2022/07/01 06:21:25;;;;;;;9.73;7.13;;;;;;;18.48;100.00;101273.72;5071474;28;20482;-43
2022/07/01 06:23:54;;;;;;;15.97;6.53;;;;;;;18.47;100.00;101269.38;5071271;28;20927;-43
2022/07/01 06:26:21;;;;;;;14.03;5.97;;;;;;;18.42;100.00;101271.97;5072063;28;20521;-45
2022/07/01 06:28:49;;;;;;;11.87;6.67;;;;;;;18.44;100.00;101279.81;5072139;28;20971;-49
2022/07/01 06:31:17;;;;;;;9.73;5.57;;;;;;;18.53;100.00;101275.72;5070649;28;20469;-45
2022/07/01 06:33:45;;;;;;;14.00;4.70;;;;;;;18.57;100.00;101275.03;5060238;28;20415;-43
2022/07/01 06:36:14;;;;;;;14.73;5.67;;;;;;;18.56;100.00;101273.38;5068992;28;20433;-47
2022/07/01 06:38:41;;;;;;;11.53;5.27;;;;;;;18.49;100.00;101285.34;5071837;28;20533;-47
2022/07/01 06:41:28;;;;;;;10.37;5.10;;;;;;;18.44;100.00;101293.31;5070684;28;21012;-45
2022/07/01 06:43:58;;;;;;;13.50;5.63;;;;;;;18.38;100.00;101311.28;5072052;28;20524;-45
2022/07/01 06:46:26;;;;;;;9.30;5.00;;;;;;;18.25;100.00;101322.28;5071855;28;20448;-48
2022/07/01 06:48:54;;;;;;;5.70;4.20;;;;;;;18.16;100.00;101329.09;5071808;28;20961;-46
2022/07/01 06:51:22;;;;;;;15.53;4.80;;;;;;;18.16;100.00;101340.72;5070559;28;20467;-46
2022/07/01 06:53:50;;;;;;;8.70;4.10;;;;;;;18.10;100.00;101338.94;5071406;28;20459;-44
2022/07/01 06:56:20;;;;;;;7.07;3.63;;;;;;;18.06;100.00;101332.38;5071808;28;20426;-44
2022/07/01 06:58:47;;;;;;;6.20;3.10;;;;;;;18.00;100.00;101338.69;5071969;28;20418;-43
2022/07/01 07:01:15;;;;;;;7.47;3.60;;;;;;;18.01;100.00;101344.91;5070454;28;20477;-44
2022/07/01 07:03:43;;;;;;;6.13;3.60;;;;;;;17.97;100.00;101349.94;5071860;28;20803;-44
2022/07/01 07:06:10;;;;;;;13.23;4.50;;;;;;;17.91;100.00;101352.75;5070883;28;20436;-46
2022/07/01 07:08:39;;;;;;;3.87;2.43;;;;;;;17.89;100.00;101355.66;5071744;28;20434;-46
2022/07/01 07:11:08;;;;;;;5.30;2.90;;;;;;;17.82;100.00;101357.66;5070880;28;20748;-45
2022/07/01 07:13:38;;;;;;;4.07;2.20;;;;;;;17.81;100.00;101349.75;5071619;28;20432;-47
2022/07/01 07:16:05;;;;;;;4.73;2.60;;;;;;;17.78;100.00;101351.06;5071813;28;20430;-48
2022/07/01 07:18:33;;;;;;;5.90;2.93;;;;;;;17.77;100.00;101348.59;5071670;28;20918;-45
2022/07/01 07:21:02;;;;;;;4.23;2.90;;;;;;;17.80;100.00;101348.94;5070811;28;20470;-47
2022/07/01 07:23:29;;;;;;;2.40;1.90;;;;;;;17.79;100.00;101350.00;5071573;28;20954;-47
2022/07/01 07:25:57;;;;;;;3.90;2.10;;;;;;;17.84;100.00;101362.78;5071385;28;20430;-44
2022/07/01 07:28:25;;;;;;;9.67;2.30;;;;;;;17.87;100.00;101362.34;5074063;28;20458;-47
2022/07/01 07:30:54;;;;;;;5.60;2.57;;;;;;;17.88;100.00;101364.00;5073033;28;20554;-48
2022/07/01 07:33:22;;;;;;;3.20;2.07;;;;;;;17.92;100.00;101375.97;5066327;28;20434;-49
2022/07/01 07:35:49;;;;;;;6.43;2.73;;;;;;;17.95;100.00;101383.63;5069240;28;20426;-47
2022/07/01 07:38:17;;;;;;;4.10;2.30;;;;;;;17.94;100.00;101385.50;5075409;28;20803;-47
2022/07/01 07:40:45;;;;;;;8.73;2.60;;;;;;;17.98;100.00;101392.06;5074111;28;20465;-46
2022/07/01 07:43:12;;;;;;;8.53;2.47;;;;;;;17.91;100.00;101387.81;5075543;28;20480;-44
2022/07/01 07:45:40;;;;;;;4.53;2.53;;;;;;;17.89;100.00;101404.22;5074967;28;20457;-44
2022/07/01 07:48:09;;;;;;;7.60;2.40;;;;;;;17.88;100.00;101389.09;5075238;28;20542;-44
2022/07/01 07:50:37;;;;;;;4.17;2.70;;;;;;;17.88;100.00;101396.38;5074015;28;20466;-48
2022/07/01 07:53:06;;;;;;;8.97;2.50;;;;;;;17.89;100.00;101403.44;5075126;28;20426;-48
2022/07/01 07:55:34;;;;;;;5.40;2.70;;;;;;;17.92;100.00;101392.19;5075076;28;20954;-48
2022/07/01 07:58:01;;;;;;;10.87;2.93;;;;;;;17.92;100.00;101382.19;5075219;28;20433;-45
2022/07/01 08:00:29;;;;;;;9.57;3.20;;;;;;;17.93;100.00;101389.22;5073400;28;20476;-47
2022/07/01 08:02:57;;;;;;;3.83;2.40;;;;;;;17.93;100.00;101388.41;5074957;28;20480;-44
2022/07/01 08:05:26;;;;;;;7.27;2.73;;;;;;;17.92;100.00;101387.56;5074870;28;20442;-46
2022/07/01 08:07:53;;;;;;;5.13;3.17;;;;;;;17.98;100.00;101385.88;5075066;28;20429;-47
2022/07/01 08:10:21;;;;;;;8.53;3.50;;;;;;;17.94;100.00;101380.09;5073463;28;20548;-49
2022/07/01 08:12:50;;;;;;;4.77;3.07;;;;;;;17.97;100.00;101389.59;5074914;28;20428;-51
2022/07/01 08:15:18;;;;;;;6.13;2.83;;;;;;;17.96;100.00;101393.34;5074252;28;20430;-47
2022/07/01 08:17:46;;;;;;;7.07;2.47;;;;;;;17.96;100.00;101394.16;5074641;28;20433;-45
2022/07/01 08:20:14;;;;;;;5.60;3.03;;;;;;;17.99;100.00;101396.41;5073620;28;20464;-49
2022/07/01 08:22:46;;;;;;;4.07;2.43;;;;;;;17.99;100.00;101393.72;5074770;28;20840;-45
2022/07/01 08:25:14;;;;;;;7.77;3.40;;;;;;;18.05;100.00;101403.59;5074477;28;20440;-49
2022/07/01 08:27:42;;;;;;;3.63;2.10;;;;;;;18.18;100.00;101398.00;5074609;28;20866;-48
2022/07/01 08:30:10;;;;;;;2.80;2.60;;;;;;;18.20;100.00;101403.16;5073173;28;20819;-45
2022/07/01 08:32:38;;;;;;;3.10;1.90;;;;;;;18.28;100.00;101412.81;5066657;28;20438;-49
2022/07/01 08:35:06;;;;;;;4.00;2.40;;;;;;;18.32;100.00;101406.72;5065952;28;20436;-46
2022/07/01 08:37:33;;;;;;;3.83;2.30;;;;;;;18.38;100.00;101407.66;5060060;28;20434;-46
2022/07/01 08:40:03;;;;;;;3.90;2.97;;;;;;;18.39;100.00;101406.63;5051687;28;20474;-48
2022/07/01 08:42:31;;;;;;;7.87;2.87;;;;;;;18.36;100.00;101407.91;5052740;28;20481;-48
2022/07/01 08:44:58;;;;;;;4.00;2.53;;;;;;;18.37;100.00;101408.75;5054094;28;20526;-47
2022/07/01 08:47:26;;;;;;;5.43;2.80;;;;;;;18.43;100.00;101405.91;5053963;28;20431;-48
2022/07/01 08:49:53;;;;;;;4.13;2.77;;;;;;;18.48;100.00;101408.75;5053502;28;20455;-45
2022/07/01 08:52:21;;;;;;;2.60;2.40;;;;;;;18.54;100.00;101417.84;5053243;28;20451;-49
2022/07/01 08:54:49;;;;;;;2.00;1.90;;;;;;;18.51;100.00;101416.44;5053796;28;20431;-49
2022/07/01 08:57:22;;;;;;;2.53;2.03;;;;;;;18.70;100.00;101414.44;5053178;28;20430;-48
2022/07/01 09:00:03;;;;;;;3.00;2.80;;;;;;;18.85;100.00;101417.50;5047251;28;20459;-46
2022/07/01 09:02:50;;;;;;;2.87;2.60;;;;;;;19.02;100.00;101421.16;5052843;28;20484;-49
2022/07/01 09:05:18;;;;;;;2.13;1.93;;;;;;;19.06;100.00;101419.63;5052966;28;20434;-45
2022/07/01 09:07:47;;;;;;;4.27;2.23;;;;;;;19.10;99.52;101423.50;5053686;28;20442;-44
2022/07/01 09:10:19;;;;;;;6.43;2.40;;;;;;;19.17;100.00;101421.50;5043511;28;20876;-45
2022/07/01 09:12:48;;;;;;;2.93;2.63;;;;;;;19.26;99.74;101430.88;5032849;28;20439;-47
2022/07/01 09:15:25;;;;;;;2.90;2.40;;;;;;;19.48;100.00;101430.28;5033573;28;20759;-44
2022/07/01 09:17:54;;;;;;;2.27;2.00;;;;;;;19.58;98.92;101425.09;5031130;28;20770;-44
2022/07/01 09:20:27;;;;;;;7.27;3.00;;;;;;;19.71;98.58;101428.34;5031893;28;20460;-48
2022/07/01 09:23:05;;;;;;;6.47;3.00;;;;;;;19.66;94.60;101443.66;5033191;28;20475;-46
2022/07/01 09:25:37;;;;;;;3.93;2.53;;;;;;;19.73;95.43;101452.47;5033565;28;20793;-48
2022/07/01 09:28:17;;;;;;;9.90;2.57;;;;;;;19.73;95.83;101450.59;5032863;28;20463;-50
2022/07/01 09:30:46;;;;;;;2.83;2.50;;;;;;;19.76;96.32;101454.72;5031928;28;20460;-50
2022/07/01 09:33:15;;;;;;;4.43;3.10;;;;;;;19.80;94.19;101442.34;5035171;28;20435;-45
2022/07/01 09:35:44;;;;;;;5.83;3.03;;;;;;;20.02;95.43;101437.06;5040543;28;20530;-47
2022/07/01 09:38:14;;;;;;;3.10;2.50;;;;;;;19.89;91.05;101455.25;5032919;28;20432;-46
2022/07/01 09:41:01;;;;;;;3.87;2.60;;;;;;;19.97;93.09;101464.88;5007434;28;20467;-48
2022/07/01 09:43:33;;;;;;;5.63;2.57;;;;;;;19.83;91.73;101468.94;5032183;28;20974;-45
2022/07/01 09:46:04;;;;;;;5.60;2.50;;;;;;;19.83;92.98;101479.75;5033025;28;20439;-50
2022/07/01 09:48:46;;;;;;;2.40;2.20;;;;;;;19.69;92.79;101468.38;5032891;28;20434;-49
2022/07/01 09:51:15;;;;;;;3.93;2.63;;;;;;;19.64;93.58;101468.28;5030746;28;20973;-45
2022/07/01 09:53:43;;;;;;;2.40;2.20;;;;;;;19.52;93.13;101458.53;5051869;28;20435;-49
2022/07/01 09:56:11;;;;;;;6.80;3.00;;;;;;;19.40;93.70;101461.25;5052125;28;20435;-46
2022/07/01 09:58:42;;;;;;;2.70;2.27;;;;;;;19.19;93.38;101454.53;5052706;28;20439;-44
2022/07/01 10:01:12;;;;;;;6.90;3.03;;;;;;;19.06;94.65;101456.63;5051418;28;20462;-46
2022/07/01 10:03:40;;;;;;;6.50;2.80;;;;;;;18.98;95.22;101457.81;5051622;28;20466;-47
2022/07/01 10:06:37;;;;;;;5.80;2.87;;;;;;;18.89;95.61;101451.13;5052427;28;20435;-48
2022/07/01 10:09:22;;;;;;;4.00;2.87;;;;;;;18.87;96.80;101441.59;5048632;28;20450;-45
2022/07/01 10:12:12;;;;;;;4.40;2.80;;;;;;;18.81;96.61;101453.34;5050696;28;20463;-50
2022/07/01 10:14:43;;;;;;;3.57;3.23;;;;;;;18.77;97.23;101456.53;5051671;28;20431;-47
2022/07/01 10:17:27;;;;;;;5.50;2.80;;;;;;;18.74;97.49;101456.97;5052386;28;20427;-47
2022/07/01 10:19:55;;;;;;;3.80;3.40;;;;;;;18.77;97.88;101453.81;5052030;28;20441;-46
2022/07/01 10:22:28;;;;;;;9.13;4.30;;;;;;;18.75;97.92;101453.25;5050366;28;20461;-47
2022/07/01 10:24:57;;;;;;;5.30;3.50;;;;;;;18.74;97.85;101461.56;5051230;28;20482;-45
2022/07/01 10:27:26;;;;;;;5.97;2.90;;;;;;;18.72;97.58;101460.97;5052068;28;20451;-49
2022/07/01 10:30:14;;;;;;;6.30;3.27;;;;;;;18.74;97.81;101448.06;5051757;28;20430;-45
2022/07/01 10:32:48;;;;;;;10.57;3.13;;;;;;;18.76;98.02;101449.47;5050305;28;20533;-45
2022/07/01 10:35:36;;;;;;;6.43;3.17;;;;;;;18.89;98.38;101448.41;5051437;28;20989;-52
2022/07/01 10:38:05;;;;;;;4.73;3.43;;;;;;;18.91;97.33;101461.69;5051822;28;20443;-47
2022/07/01 10:40:44;;;;;;;8.10;3.20;;;;;;;18.99;97.37;101467.59;5050598;28;20439;-49
2022/07/01 10:43:15;;;;;;;4.60;3.30;;;;;;;19.04;95.64;101464.16;5050385;28;20480;-46
2022/07/01 10:46:05;;;;;;;6.63;3.80;;;;;;;19.10;94.33;101466.75;5051494;28;20446;-45
2022/07/01 10:48:34;;;;;;;7.83;3.50;;;;;;;19.10;93.22;101469.47;5051858;28;20438;-46
2022/07/01 10:51:02;;;;;;;4.83;3.03;;;;;;;19.19;92.94;101465.34;5050873;28;20442;-44
2022/07/01 10:53:46;;;;;;;8.30;3.30;;;;;;;19.33;93.48;101474.03;5050500;28;20459;-46
2022/07/01 10:56:39;;;;;;;3.70;2.80;;;;;;;19.39;93.70;101485.78;5051289;28;20508;-45
2022/07/01 10:59:06;;;;;;;14.63;3.70;;;;;;;19.35;93.20;101488.97;5048880;28;20938;-46
2022/07/01 11:01:37;;;;;;;6.10;3.40;;;;;;;19.24;91.71;101491.66;5050182;28;20831;-46
2022/07/01 11:04:05;;;;;;;3.20;2.67;;;;;;;19.23;92.36;101498.97;5051213;28;20893;-46
2022/07/01 11:06:38;;;;;;;4.70;2.83;;;;;;;19.19;94.00;101502.38;5051063;28;20500;-45
2022/07/01 11:09:06;;;;;;;6.80;3.63;;;;;;;19.07;93.30;101493.44;5051253;28;20423;-45
2022/07/01 11:11:34;;;;;;;7.00;3.17;;;;;;;18.99;93.61;101508.13;5050235;28;20477;-45
2022/07/01 11:14:03;;;;;;;4.43;3.10;;;;;;;18.91;94.75;101507.63;5051281;28;20521;-44
2022/07/01 11:16:31;;;;;;;5.33;2.40;;;;;;;18.85;95.35;101503.97;5051154;28;20439;-49
2022/07/01 11:19:00;;;;;;;4.80;2.63;;;;;;;18.79;95.59;101508.44;5051554;28;20431;-45
2022/07/01 11:21:28;;;;;;;5.93;3.60;;;;;;;18.77;96.21;101515.13;5047551;28;20455;-52
2022/07/01 11:23:55;;;;;;;8.10;3.40;;;;;;;18.78;96.47;101514.91;5050502;28;20474;-47
2022/07/01 11:26:24;;;;;;;7.90;3.53;;;;;;;18.86;96.41;101531.84;5050835;28;21233;-50
2022/07/01 11:28:52;;;;;;;8.23;3.40;;;;;;;18.86;95.78;101534.53;5051476;28;20482;-44
2022/07/01 11:31:31;;;;;;;3.27;2.60;;;;;;;18.86;95.48;101546.19;5049221;28;20480;-46